Time;durP1;ratioP1;P1;durP2;ratioP2;P2;SDS_P1;SDS_P2;PMS_P1;PMS_P2;Temp;Humidity;BMP_temperature;BMP_pressure;BME280_temperature;BME280_humidity;BME280_pressure;Samples;Min_cycle;Max_cycle;Signal;HPM_P1;HPM_P2
2024/01/09 00:00:08;;;;;;;204.68;129.70;;;;;;;21.62;44.65;102192.81;31198343;28;20200;-39
2024/01/09 00:15:12;;;;;;;172.73;112.72;;;;;;;21.56;44.51;102185.53;31218643;28;20236;-37
2024/01/09 00:30:15;;;;;;;141.50;92.20;;;;;;;21.50;43.68;102175.47;31210706;28;20546;-40
2024/01/09 00:45:18;;;;;;;123.25;80.05;;;;;;;21.48;44.06;102167.28;31218854;28;20260;-39
2024/01/09 01:00:21;;;;;;;101.00;65.93;;;;;;;21.37;44.00;102168.63;31223983;28;20239;-40
2024/01/09 01:15:25;;;;;;;87.63;58.35;;;;;;;21.29;43.90;102164.47;31224602;28;20725;-39
2024/01/09 01:30:28;;;;;;;76.22;49.78;;;;;;;21.29;43.38;102164.47;31210755;28;20208;-38
2024/01/09 01:45:31;;;;;;;68.97;44.65;;;;;;;21.19;43.26;102170.31;31193231;28;20314;-40
2024/01/09 02:00:35;;;;;;;54.28;36.75;;;;;;;21.18;43.71;102168.63;31248196;28;20593;-39
2024/01/09 02:15:38;;;;;;;52.63;35.13;;;;;;;21.12;43.36;102178.34;31222251;28;20228;-38
2024/01/09 02:30:41;;;;;;;46.08;30.63;;;;;;;;;;31231690;28;20252;-39
2024/01/09 02:45:44;;;;;;;41.03;26.77;;;;;;;21.00;42.91;102159.03;31237720;28;20256;-39
2024/01/09 03:00:47;;;;;;;35.85;24.05;;;;;;;20.93;43.02;102154.88;31245385;28;20466;-37
2024/01/09 03:15:50;;;;;;;30.35;20.70;;;;;;;20.90;42.23;102162.00;31181392;28;20230;-37
2024/01/09 03:30:53;;;;;;;27.83;19.27;;;;;;;21.13;42.63;102154.56;31258130;28;20251;-38
2024/01/09 03:45:57;;;;;;;25.10;18.63;;;;;;;21.31;42.52;102155.69;31244080;28;20263;-38
2024/01/09 04:01:00;;;;;;;22.83;15.10;;;;;;;21.38;42.26;102142.81;31233761;28;20192;-38
2024/01/09 04:16:03;;;;;;;19.27;14.25;;;;;;;21.37;42.34;102132.63;31243287;28;20232;-39
2024/01/09 04:31:06;;;;;;;19.33;12.77;;;;;;;21.43;42.29;102127.69;31236362;28;20252;-38
2024/01/09 04:46:10;;;;;;;17.35;11.65;;;;;;;21.42;41.94;102123.22;31243894;28;20847;-38
2024/01/09 05:01:13;;;;;;;14.75;10.93;;;;;;;21.43;41.61;102124.03;31220719;28;20649;-39
2024/01/09 05:16:16;;;;;;;13.32;9.73;;;;;;;21.34;42.08;102116.25;31221670;28;20751;-37
2024/01/09 05:31:19;;;;;;;12.10;8.48;;;;;;;21.38;41.54;102123.00;31203564;28;20683;-37
2024/01/09 05:46:22;;;;;;;10.63;7.95;;;;;;;21.31;41.82;102116.03;31210288;28;20308;-38
2024/01/09 06:01:25;;;;;;;9.18;7.07;;;;;;;21.33;40.98;102116.56;31195716;28;20224;-38
2024/01/09 06:16:28;;;;;;;282.60;175.13;;;;;;;21.58;41.50;102126.56;31229060;28;20594;-39
2024/01/09 06:31:31;;;;;;;187.85;114.43;;;;;;;21.79;41.15;102127.88;31198747;28;20216;-38
2024/01/09 06:46:34;;;;;;;112.60;70.07;;;;;;;21.83;41.10;102137.41;31138159;28;20311;-39
2024/01/09 07:01:38;;;;;;;155.05;97.18;;;;;;;21.81;41.03;102156.72;31187581;28;20201;-39
2024/01/09 07:16:41;;;;;;;167.85;109.18;;;;;;;21.80;41.25;102171.22;31064165;28;20234;-40
2024/01/09 07:32:17;;;;;;;134.95;88.82;;;;;;;21.83;41.11;102174.25;31638155;27;20321;-36
2024/01/09 07:47:21;;;;;;;415.02;281.48;;;;;;;22.19;42.44;102170.75;31576545;28;20591;-41
2024/01/09 08:02:24;;;;;;;308.67;203.88;;;;;;;22.26;42.23;102176.81;31558674;28;20250;-37
2024/01/09 08:17:27;;;;;;;219.48;141.48;;;;;;;22.26;42.12;102182.50;31512393;28;20314;-39
2024/01/09 08:32:30;;;;;;;156.85;103.75;;;;;;;22.20;41.63;102189.44;31415587;28;20228;-38
2024/01/09 08:47:33;;;;;;;324.60;223.63;;;;;;;22.11;42.43;102192.16;31318508;28;20350;-39
2024/01/09 09:02:36;;;;;;;242.38;154.75;;;;;;;22.09;42.68;102189.63;31336477;28;20246;-38
2024/01/09 09:17:39;;;;;;;173.52;114.47;;;;;;;22.07;42.12;102186.25;31331348;28;20239;-39
2024/01/09 09:32:42;;;;;;;134.23;86.93;;;;;;;22.17;41.90;102195.75;31332860;28;20204;-38
2024/01/09 09:47:45;;;;;;;106.18;69.68;;;;;;;22.20;40.84;102206.47;31332015;28;20224;-39
2024/01/09 10:02:50;;;;;;;316.27;242.80;;;;;;;22.52;40.89;102199.81;31335736;28;20550;-39
2024/01/09 10:17:53;;;;;;;265.25;174.93;;;;;;;22.52;41.51;102188.47;31268738;28;20313;-40
2024/01/09 10:32:57;;;;;;;198.68;128.75;;;;;;;22.54;40.66;102181.31;31447917;28;20251;-39
2024/01/09 10:48:00;;;;;;;304.73;190.57;;;;;;;22.59;40.38;102169.81;31487647;28;20634;-42
2024/01/09 11:03:04;;;;;;;252.27;149.38;;;;;;;22.60;40.60;102137.44;31538103;28;20243;-42
2024/01/09 11:18:08;;;;;;;254.70;158.02;;;;;;;22.80;40.09;102131.34;31534175;28;20613;-38
2024/01/09 11:33:31;;;;;;;409.35;257.67;;;;;;;22.93;40.29;102112.56;31432072;28;20295;-38
2024/01/09 11:48:35;;;;;;;306.83;187.15;;;;;;;23.17;40.18;102104.56;31428607;28;20318;-40
2024/01/09 12:03:38;;;;;;;232.23;138.07;;;;;;;23.30;40.46;102080.06;31432228;28;20579;-42
2024/01/09 12:18:48;;;;;;;56.35;33.08;;;;;;;21.18;23.80;102061.03;31370741;28;20252;-39
2024/01/09 12:33:51;;;;;;;80.15;48.25;;;;;;;23.81;32.34;102036.84;31462246;28;20555;-39
2024/01/09 12:48:55;;;;;;;53.30;32.38;;;;;;;24.05;31.26;102022.16;31447433;28;20250;-41
2024/01/09 13:03:58;;;;;;;39.20;22.83;;;;;;;23.15;31.56;102010.31;31483033;28;20255;-39
2024/01/09 13:19:01;;;;;;;39.15;21.20;;;;;;;22.67;35.12;102010.16;31442966;28;20219;-39
2024/01/09 13:34:04;;;;;;;32.63;20.40;;;;;;;22.53;36.11;102012.22;31438403;28;20598;-39
2024/01/09 13:49:07;;;;;;;35.35;20.35;;;;;;;22.40;37.04;102013.94;31465723;28;20310;-37
2024/01/09 14:04:15;;;;;;;27.70;17.90;;;;;;;22.52;38.12;102009.69;31401124;28;20441;-37
2024/01/09 14:19:19;;;;;;;32.30;16.33;;;;;;;22.59;38.26;102007.25;31459369;28;20225;-41
2024/01/09 14:34:22;;;;;;;25.02;15.27;;;;;;;22.72;38.25;101998.66;31414442;28;20197;-38
2024/01/09 14:49:25;;;;;;;196.68;132.57;;;;;;;22.67;39.46;101990.28;31393349;28;20230;-39
2024/01/09 15:04:29;;;;;;;360.08;237.73;;;;;;;22.71;39.32;101999.84;31404857;28;20697;-38
2024/01/09 15:19:32;;;;;;;286.90;186.20;;;;;;;22.70;39.54;102001.00;31414462;28;20231;-38
2024/01/09 15:34:35;;;;;;;174.20;110.13;;;;;;;22.72;39.85;102010.00;31387019;28;20199;-38
2024/01/09 15:49:39;;;;;;;258.85;164.60;;;;;;;22.68;39.38;102009.00;31392574;28;20222;-39
2024/01/09 16:04:43;;;;;;;447.17;290.20;;;;;;;22.55;40.65;102004.22;31445217;28;20222;-33
2024/01/09 16:19:46;;;;;;;365.23;236.50;;;;;;;22.44;40.45;102009.31;31433685;28;20235;-43
2024/01/09 16:34:49;;;;;;;414.15;289.52;;;;;;;22.42;40.30;102017.31;31442528;28;20204;-40
2024/01/09 16:49:54;;;;;;;319.00;211.52;;;;;;;22.45;40.45;102021.50;31403227;28;20701;-43
2024/01/09 17:04:57;;;;;;;324.77;220.23;;;;;;;22.38;40.24;102015.44;31344273;28;20232;-39
2024/01/09 17:20:00;;;;;;;291.48;190.35;;;;;;;22.63;39.68;102017.63;31386604;28;20562;-45
2024/01/09 17:35:04;;;;;;;405.02;280.92;;;;;;;22.70;40.53;102003.84;31393012;28;20574;-47
2024/01/09 17:50:08;;;;;;;397.10;275.08;;;;;;;22.72;40.38;102010.00;31451789;28;20230;-42
2024/01/09 18:05:12;;;;;;;408.13;286.13;;;;;;;22.65;40.56;102003.97;31431241;28;20219;-51
2024/01/09 18:20:16;;;;;;;475.05;336.13;;;;;;;22.73;41.61;102013.69;31395199;28;20262;-46
2024/01/09 18:35:20;;;;;;;576.35;419.98;;;;;;;22.65;41.50;102003.13;31533405;28;20488;-44
2024/01/09 18:50:22;;;;;;;585.30;429.85;;;;;;;22.63;42.13;101994.94;31510865;28;20333;-49
2024/01/09 19:05:25;;;;;;;601.60;438.65;;;;;;;22.58;42.52;102003.59;31525000;28;20530;-43
2024/01/09 19:20:29;;;;;;;605.35;450.10;;;;;;;22.62;43.53;101993.25;31496115;28;20309;-39
2024/01/09 19:35:32;;;;;;;539.00;399.23;;;;;;;22.64;45.41;101988.09;31545133;28;20203;-48
2024/01/09 19:50:35;;;;;;;583.50;427.30;;;;;;;22.65;47.51;101986.94;31460408;28;20227;-34
2024/01/09 20:05:38;;;;;;;565.63;420.08;;;;;;;22.66;48.32;101990.59;31542707;28;20523;-40
2024/01/09 20:20:42;;;;;;;590.20;439.65;;;;;;;22.63;48.20;101994.09;31484693;28;20251;-34
2024/01/09 20:35:46;;;;;;;526.97;386.95;;;;;;;22.55;47.79;101980.69;31522498;28;20290;-34
2024/01/09 20:50:49;;;;;;;430.92;318.75;;;;;;;22.45;46.74;101973.28;31486062;28;20234;-36
2024/01/09 21:05:53;;;;;;;249.38;163.02;;;;;;;22.04;42.34;101976.28;31573824;28;20231;-37
2024/01/09 21:20:56;;;;;;;247.07;161.45;;;;;;;21.77;41.75;101965.81;31595812;28;20589;-32
2024/01/09 21:35:59;;;;;;;220.40;142.90;;;;;;;21.51;41.73;101987.34;31565653;28;20253;-36
2024/01/09 21:51:02;;;;;;;202.93;134.05;;;;;;;21.24;42.05;101974.88;31553330;28;20252;-33
2024/01/09 22:06:06;;;;;;;184.68;120.20;;;;;;;21.01;42.64;101970.22;31571531;28;20229;-52
2024/01/09 22:21:12;;;;;;;164.73;107.55;;;;;;;20.83;42.48;101976.78;31602693;28;20241;-47
2024/01/09 22:36:15;;;;;;;147.45;97.32;;;;;;;20.64;42.88;101972.00;31626006;28;20304;-48
2024/01/09 22:51:18;;;;;;;131.55;88.65;;;;;;;20.56;42.91;101969.06;31617863;28;20250;-37
2024/01/09 23:06:21;;;;;;;115.22;78.75;;;;;;;20.47;42.97;101971.75;31579004;28;20243;-32
2024/01/09 23:21:24;;;;;;;107.57;69.68;;;;;;;20.37;43.08;101960.63;31584274;28;20248;-33
2024/01/09 23:36:27;;;;;;;95.85;63.92;;;;;;;20.27;42.77;101941.78;31623051;28;20289;-32
2024/01/09 23:51:30;;;;;;;87.30;58.40;;;;;;;20.20;42.82;101944.19;31603205;28;20249;-35
